createdAt,value
2018-03-26T00:00:26.038Z,1.10
2018-03-26T00:02:53.530Z,1.10
2018-03-26T00:05:20.987Z,0.90
2018-03-26T00:07:48.911Z,1.13
2018-03-26T00:10:16.331Z,1.00
2018-03-26T00:12:43.986Z,0.80
2018-03-26T00:15:11.414Z,1.00
2018-03-26T00:17:39.596Z,0.90
2018-03-26T00:20:07.085Z,0.90
2018-03-26T00:22:35.111Z,1.00
2018-03-26T00:25:02.620Z,0.80
2018-03-26T00:27:30.773Z,0.80
2018-03-26T00:29:58.209Z,0.80
2018-03-26T00:32:25.863Z,0.90
2018-03-26T00:34:53.844Z,1.00
2018-03-26T00:37:21.521Z,0.77
2018-03-26T00:39:49.701Z,0.90
2018-03-26T00:42:17.176Z,0.60
2018-03-26T00:44:44.633Z,0.90
2018-03-26T00:47:12.071Z,0.90
2018-03-26T00:49:40.245Z,0.90
2018-03-26T00:52:07.678Z,0.77
2018-03-26T00:54:35.107Z,0.93
2018-03-26T00:57:02.552Z,1.13
2018-03-26T00:59:29.984Z,1.20
2018-03-26T01:01:57.470Z,1.20
2018-03-26T01:04:25.049Z,0.90
2018-03-26T01:06:52.517Z,1.20
2018-03-26T01:09:19.946Z,1.03
2018-03-26T01:11:47.345Z,1.00
2018-03-26T01:14:14.759Z,1.10
2018-03-26T01:16:42.265Z,0.90
2018-03-26T01:19:09.701Z,1.10
2018-03-26T01:21:37.096Z,1.40
2018-03-26T01:24:04.612Z,1.10
2018-03-26T01:26:32.024Z,1.20
2018-03-26T01:28:59.446Z,1.00
2018-03-26T01:31:27.004Z,1.17
2018-03-26T01:33:54.645Z,1.00
2018-03-26T01:36:22.063Z,1.07
2018-03-26T01:38:49.497Z,0.90
2018-03-26T01:41:16.952Z,1.10
2018-03-26T01:43:44.951Z,1.13
2018-03-26T01:46:12.400Z,1.03
2018-03-26T01:48:39.950Z,1.07
2018-03-26T01:51:07.356Z,1.30
2018-03-26T01:53:34.813Z,0.93
2018-03-26T01:56:02.224Z,1.20
2018-03-26T01:58:29.697Z,1.00
2018-03-26T02:00:57.140Z,1.20
2018-03-26T02:03:24.654Z,1.40
2018-03-26T02:05:52.322Z,1.40
2018-03-26T02:08:19.762Z,1.10
2018-03-26T02:10:47.189Z,1.20
2018-03-26T02:13:15.240Z,1.23
2018-03-26T02:15:42.679Z,1.37
2018-03-26T02:18:10.809Z,1.20
2018-03-26T02:20:38.280Z,1.03
2018-03-26T02:23:05.716Z,1.13
2018-03-26T02:25:33.103Z,1.40
2018-03-26T02:28:01.395Z,1.10
2018-03-26T02:30:28.954Z,1.27
2018-03-26T02:32:56.490Z,1.40
2018-03-26T02:35:24.695Z,1.20
2018-03-26T02:37:52.163Z,1.53
2018-03-26T02:40:19.745Z,1.33
2018-03-26T02:42:47.264Z,1.43
2018-03-26T02:45:14.732Z,1.73
2018-03-26T02:47:42.365Z,1.30
2018-03-26T02:50:09.906Z,1.50
2018-03-26T02:52:38.101Z,1.20
2018-03-26T02:55:05.655Z,1.37
2018-03-26T02:57:33.104Z,4.13
2018-03-26T03:00:00.671Z,1.37
2018-03-26T03:02:28.088Z,1.50
2018-03-26T03:04:55.550Z,1.10
2018-03-26T03:07:22.978Z,1.23
2018-03-26T03:09:50.470Z,1.70
2018-03-26T03:12:18.858Z,1.13
2018-03-26T03:14:46.350Z,1.33
2018-03-26T03:17:13.863Z,1.17
2018-03-26T03:19:41.313Z,1.23
2018-03-26T03:22:10.286Z,1.10
2018-03-26T03:24:38.015Z,1.20
2018-03-26T03:27:05.593Z,1.00
2018-03-26T03:29:33.132Z,1.40
2018-03-26T03:32:01.577Z,1.27
2018-03-26T03:34:30.054Z,1.20
2018-03-26T03:36:57.559Z,1.27
2018-03-26T03:39:25.075Z,1.27
2018-03-26T03:41:52.607Z,0.87
2018-03-26T03:44:20.278Z,1.10
2018-03-26T03:46:47.772Z,1.30
2018-03-26T03:49:15.255Z,1.27
2018-03-26T03:51:42.805Z,1.30
2018-03-26T03:54:10.267Z,1.20
2018-03-26T03:56:37.787Z,1.10
2018-03-26T03:59:05.872Z,1.27
2018-03-26T04:01:33.369Z,1.30
2018-03-26T04:04:01.071Z,1.00
2018-03-26T04:06:35.546Z,1.23
2018-03-26T04:09:03.113Z,1.23
2018-03-26T04:11:30.598Z,1.30
2018-03-26T04:13:58.058Z,1.13
2018-03-26T04:16:25.473Z,1.17
2018-03-26T04:18:52.974Z,1.00
2018-03-26T04:21:20.506Z,1.00
2018-03-26T04:23:47.946Z,1.17
2018-03-26T04:26:15.326Z,1.13
2018-03-26T04:28:42.830Z,1.17
2018-03-26T04:31:10.244Z,1.00
2018-03-26T04:33:37.652Z,1.20
2018-03-26T04:36:05.133Z,1.20
2018-03-26T04:38:32.543Z,1.30
2018-03-26T04:41:00.487Z,1.17
2018-03-26T04:43:27.915Z,1.20
2018-03-26T04:45:55.310Z,1.10
2018-03-26T04:48:22.723Z,1.20
2018-03-26T04:50:50.150Z,1.30
2018-03-26T04:53:18.252Z,1.40
2018-03-26T04:55:45.808Z,1.63
2018-03-26T04:58:13.295Z,1.30
2018-03-26T05:00:41.124Z,1.30
2018-03-26T05:03:08.578Z,1.40
2018-03-26T05:08:03.099Z,1.20
2018-03-26T05:10:30.580Z,1.20
2018-03-26T05:12:58.762Z,1.27
2018-03-26T05:15:26.368Z,1.13
2018-03-26T05:17:53.963Z,0.83
2018-03-26T05:20:21.803Z,1.17
2018-03-26T05:22:49.476Z,1.33
2018-03-26T05:25:16.982Z,1.23
2018-03-26T05:27:44.556Z,1.10
2018-03-26T05:30:12.220Z,1.20
2018-03-26T05:32:39.671Z,1.27
2018-03-26T05:35:07.129Z,1.20
2018-03-26T05:37:35.296Z,1.43
2018-03-26T05:40:02.721Z,1.30
2018-03-26T05:42:30.186Z,1.30
2018-03-26T05:44:57.612Z,0.97
2018-03-26T05:47:25.495Z,1.67
2018-03-26T05:49:52.949Z,1.07
2018-03-26T05:52:20.433Z,1.03
2018-03-26T05:54:47.920Z,1.20
2018-03-26T05:57:15.378Z,1.00
2018-03-26T05:59:42.797Z,0.90
2018-03-26T06:02:10.936Z,1.00
2018-03-26T06:04:38.379Z,1.00
2018-03-26T06:07:05.832Z,1.17
2018-03-26T06:09:33.238Z,1.03
2018-03-26T06:12:00.719Z,0.97
2018-03-26T06:14:28.124Z,1.20
2018-03-26T06:17:02.102Z,1.27
2018-03-26T06:19:29.594Z,1.20
2018-03-26T06:21:57.474Z,1.20
2018-03-26T06:24:25.048Z,0.93
2018-03-26T06:26:52.614Z,1.30
2018-03-26T06:29:20.100Z,1.50
2018-03-26T06:31:47.579Z,1.30
2018-03-26T06:34:15.095Z,1.10
2018-03-26T06:36:59.463Z,1.40
2018-03-26T06:39:27.069Z,1.83
2018-03-26T06:41:55.247Z,1.20
2018-03-26T06:44:22.727Z,1.10
2018-03-26T06:46:50.195Z,0.97
2018-03-26T06:49:17.679Z,1.30
2018-03-26T06:51:45.124Z,1.10
2018-03-26T06:54:12.585Z,1.00
2018-03-26T06:56:40.049Z,1.10
2018-03-26T06:59:07.516Z,1.07
2018-03-26T07:01:34.983Z,1.00
2018-03-26T07:04:02.438Z,1.20
2018-03-26T07:06:29.944Z,1.00
2018-03-26T07:08:57.407Z,1.07
2018-03-26T07:11:24.835Z,1.00
2018-03-26T07:13:52.295Z,1.00
2018-03-26T07:16:20.499Z,1.10
2018-03-26T07:18:47.928Z,0.90
2018-03-26T07:21:15.378Z,1.13
2018-03-26T07:23:42.903Z,0.90
2018-03-26T07:26:10.423Z,0.90
2018-03-26T07:28:37.875Z,1.30
2018-03-26T07:31:06.139Z,1.10
2018-03-26T07:33:33.572Z,1.30
2018-03-26T07:36:00.987Z,0.90
2018-03-26T07:38:28.490Z,0.90
2018-03-26T07:40:56.074Z,0.93
2018-03-26T07:43:23.502Z,1.00
2018-03-26T07:45:51.320Z,1.10
2018-03-26T07:48:19.427Z,1.50
2018-03-26T07:50:46.888Z,0.93
2018-03-26T07:53:14.328Z,0.83
2018-03-26T07:55:41.777Z,0.80
2018-03-26T07:58:09.264Z,0.90
2018-03-26T08:00:37.460Z,1.10
2018-03-26T08:03:04.906Z,0.70
2018-03-26T08:05:32.333Z,0.80
2018-03-26T08:07:59.795Z,0.93
2018-03-26T08:10:27.362Z,1.00
2018-03-26T08:12:54.813Z,0.70
2018-03-26T08:15:22.301Z,0.70
2018-03-26T08:17:49.747Z,1.00
2018-03-26T08:20:17.208Z,1.13
2018-03-26T08:22:44.886Z,1.03
2018-03-26T08:25:12.673Z,0.90
2018-03-26T08:27:40.245Z,0.90
2018-03-26T08:30:07.848Z,1.30
2018-03-26T08:32:36.990Z,2.77
2018-03-26T08:35:20.821Z,1.00
2018-03-26T08:37:49.454Z,1.10
2018-03-26T08:40:16.956Z,1.00
2018-03-26T08:42:44.465Z,1.20
2018-03-26T08:45:11.937Z,1.10
2018-03-26T08:47:39.425Z,1.07
2018-03-26T08:50:06.960Z,0.90
2018-03-26T08:52:34.400Z,0.73
2018-03-26T08:55:02.251Z,1.07
2018-03-26T08:57:29.725Z,0.70
2018-03-26T08:59:57.149Z,0.70
2018-03-26T09:02:24.674Z,1.20
2018-03-26T09:04:52.080Z,1.10
2018-03-26T09:07:19.728Z,1.00
2018-03-26T09:09:47.180Z,1.07
2018-03-26T09:12:14.609Z,1.13
2018-03-26T09:14:42.904Z,1.40
2018-03-26T09:17:11.137Z,1.00
2018-03-26T09:19:38.644Z,1.60
2018-03-26T09:22:06.157Z,0.87
2018-03-26T09:24:34.234Z,1.10
2018-03-26T09:27:01.743Z,0.80
2018-03-26T09:29:29.348Z,0.83
2018-03-26T09:31:56.892Z,0.80
2018-03-26T09:34:24.357Z,0.60
2018-03-26T09:36:51.773Z,1.17
2018-03-26T09:39:19.223Z,1.13
2018-03-26T09:41:46.737Z,1.33
2018-03-26T09:44:14.204Z,0.70
2018-03-26T09:46:42.437Z,0.90
2018-03-26T09:49:09.877Z,0.87
2018-03-26T09:51:37.361Z,1.10
2018-03-26T09:54:04.931Z,0.80
2018-03-26T09:56:32.423Z,1.07
2018-03-26T09:58:59.844Z,1.00
2018-03-26T10:01:33.113Z,1.10
2018-03-26T10:04:00.573Z,0.70
2018-03-26T10:06:28.073Z,0.90
2018-03-26T10:08:56.554Z,0.93
2018-03-26T10:11:23.978Z,0.73
2018-03-26T10:13:51.485Z,1.00
2018-03-26T10:16:19.012Z,1.03
2018-03-26T10:18:46.414Z,0.70
2018-03-26T10:21:13.875Z,0.97
2018-03-26T10:23:42.639Z,1.10
2018-03-26T10:26:10.162Z,1.13
2018-03-26T10:28:38.635Z,1.37
2018-03-26T10:31:06.224Z,1.00
2018-03-26T10:33:33.772Z,1.10
2018-03-26T10:36:01.511Z,1.00
2018-03-26T10:38:29.555Z,1.90
2018-03-26T10:40:58.388Z,1.07
2018-03-26T10:43:25.807Z,1.40
2018-03-26T10:45:53.257Z,0.80
2018-03-26T10:48:20.790Z,1.67
2018-03-26T10:50:48.580Z,1.00
2018-03-26T10:53:16.088Z,1.57
2018-03-26T10:55:43.565Z,0.90
2018-03-26T10:58:11.050Z,0.80
2018-03-26T11:00:39.561Z,0.90
2018-03-26T11:03:07.017Z,0.80
2018-03-26T11:05:34.514Z,1.00
2018-03-26T11:08:02.032Z,1.03
2018-03-26T11:10:29.434Z,1.00
2018-03-26T11:12:56.864Z,1.00
2018-03-26T11:15:24.382Z,0.93
2018-03-26T11:17:51.859Z,0.77
2018-03-26T11:20:19.313Z,0.90
2018-03-26T11:22:46.721Z,0.63
2018-03-26T11:25:14.277Z,0.80
2018-03-26T11:27:41.717Z,0.90
2018-03-26T11:30:09.441Z,1.10
2018-03-26T11:32:36.838Z,0.77
2018-03-26T11:35:04.262Z,0.90
2018-03-26T11:37:31.737Z,1.10
2018-03-26T11:39:59.240Z,1.00
2018-03-26T11:42:26.717Z,0.93
2018-03-26T11:44:54.273Z,1.10
2018-03-26T11:47:21.839Z,1.30
2018-03-26T11:49:50.020Z,1.00
2018-03-26T11:52:17.469Z,1.20
2018-03-26T11:54:44.936Z,1.00
2018-03-26T11:57:12.329Z,0.90
2018-03-26T11:59:39.794Z,1.20
2018-03-26T12:02:07.269Z,0.90
2018-03-26T12:04:35.129Z,1.20
2018-03-26T12:07:02.605Z,0.83
2018-03-26T12:09:30.066Z,1.07
2018-03-26T12:11:57.537Z,0.90
2018-03-26T12:14:25.042Z,0.80
2018-03-26T12:16:52.598Z,1.20
2018-03-26T12:19:20.031Z,2.17
2018-03-26T12:21:47.471Z,0.87
2018-03-26T12:24:20.840Z,0.93
2018-03-26T12:26:48.889Z,0.90
2018-03-26T12:29:22.173Z,1.00
2018-03-26T12:31:49.918Z,1.60
2018-03-26T12:34:23.163Z,0.70
2018-03-26T12:36:50.618Z,0.87
2018-03-26T12:39:18.681Z,1.53
2018-03-26T12:41:46.101Z,0.93
2018-03-26T12:44:19.530Z,1.00
2018-03-26T12:46:47.028Z,1.00
2018-03-26T12:49:14.459Z,0.70
2018-03-26T12:51:48.000Z,1.20
2018-03-26T12:54:15.508Z,0.90
2018-03-26T12:56:43.030Z,0.90
2018-03-26T12:59:10.524Z,0.70
2018-03-26T13:01:54.709Z,0.80
2018-03-26T13:04:22.133Z,0.87
2018-03-26T13:06:49.563Z,1.00
2018-03-26T13:09:16.996Z,1.50
2018-03-26T13:11:44.418Z,0.83
2018-03-26T13:14:11.874Z,0.80
2018-03-26T13:16:39.506Z,0.70
2018-03-26T13:19:07.326Z,0.70
2018-03-26T13:21:35.587Z,1.00
2018-03-26T13:24:03.095Z,1.17
2018-03-26T13:26:30.521Z,0.80
2018-03-26T13:28:57.975Z,0.97
2018-03-26T13:31:25.402Z,1.00
2018-03-26T13:33:52.860Z,1.20
2018-03-26T13:36:20.326Z,1.03
2018-03-26T13:38:48.360Z,1.20
2018-03-26T13:41:15.813Z,1.10
2018-03-26T13:43:43.396Z,0.80
2018-03-26T13:46:10.935Z,1.03
2018-03-26T13:48:38.398Z,1.17
2018-03-26T13:51:05.858Z,1.20
2018-03-26T13:53:33.303Z,1.20
2018-03-26T13:56:00.802Z,0.93
2018-03-26T13:58:29.029Z,1.00
2018-03-26T14:00:57.226Z,0.90
2018-03-26T14:03:24.741Z,1.10
2018-03-26T14:05:52.844Z,1.10
2018-03-26T14:08:26.153Z,1.00
2018-03-26T14:10:59.401Z,0.80
2018-03-26T14:13:32.894Z,1.43
2018-03-26T14:16:06.327Z,1.30
2018-03-26T14:18:33.705Z,0.67
2018-03-26T14:21:01.915Z,0.90
2018-03-26T14:23:29.384Z,1.00
2018-03-26T14:25:56.837Z,0.90
2018-03-26T14:28:24.297Z,0.63
2018-03-26T14:30:51.738Z,1.10
2018-03-26T14:33:19.175Z,1.20
2018-03-26T14:35:46.598Z,0.87
2018-03-26T14:38:14.149Z,1.00
2018-03-26T14:40:41.733Z,1.00
2018-03-26T14:43:09.175Z,0.90
2018-03-26T14:45:36.960Z,1.00
2018-03-26T14:48:04.458Z,0.90
2018-03-26T14:50:31.901Z,0.80
2018-03-26T14:52:59.844Z,0.80
2018-03-26T14:55:27.922Z,0.60
2018-03-26T14:57:55.322Z,1.10
2018-03-26T15:00:22.800Z,1.00
2018-03-26T15:02:50.350Z,0.80
2018-03-26T15:05:17.828Z,1.07
2018-03-26T15:07:45.262Z,0.90
2018-03-26T15:10:12.799Z,1.00
2018-03-26T15:12:40.303Z,1.03
2018-03-26T15:15:08.334Z,1.00
2018-03-26T15:17:35.850Z,1.10
2018-03-26T15:20:03.428Z,0.90
2018-03-26T15:22:31.256Z,0.70
2018-03-26T15:25:07.102Z,0.77
2018-03-26T15:27:37.152Z,1.00
2018-03-26T15:30:10.989Z,0.70
2018-03-26T15:32:38.498Z,0.97
2018-03-26T15:35:05.923Z,0.73
2018-03-26T15:37:33.420Z,1.00
2018-03-26T15:40:00.904Z,0.90
2018-03-26T15:42:28.360Z,1.13
2018-03-26T15:44:56.055Z,0.77
2018-03-26T15:49:57.218Z,1.10
2018-03-26T15:52:24.686Z,1.00
2018-03-26T15:54:52.416Z,1.13
2018-03-26T15:57:20.392Z,1.10
2018-03-26T15:59:52.183Z,1.20
2018-03-26T16:02:19.716Z,1.00
2018-03-26T16:04:47.207Z,1.17
2018-03-26T16:07:14.650Z,1.10
2018-03-26T16:09:42.111Z,1.20
2018-03-26T16:12:09.570Z,1.17
2018-03-26T16:14:37.124Z,0.77
2018-03-26T16:17:04.669Z,0.90
2018-03-26T16:19:40.539Z,1.20
2018-03-26T16:22:28.541Z,0.90
2018-03-26T16:36:39.926Z,1.03
2018-03-26T16:41:48.268Z,0.97
2018-03-26T16:50:00.545Z,1.03
2018-03-26T16:52:29.740Z,0.80
2018-03-26T16:54:59.657Z,1.20
2018-03-26T17:00:41.637Z,0.97
2018-03-26T17:03:25.264Z,1.07
2018-03-26T17:05:52.840Z,1.03
2018-03-26T17:08:28.093Z,1.20
2018-03-26T17:13:52.726Z,1.27
2018-03-26T17:22:07.854Z,0.90
2018-03-26T17:30:26.833Z,1.23
2018-03-26T17:50:20.540Z,1.00
2018-03-26T17:53:03.653Z,0.90
2018-03-26T17:55:31.471Z,1.30
2018-03-26T17:58:01.954Z,1.20
2018-03-26T18:10:12.931Z,1.00
2018-03-26T18:12:56.860Z,1.13
2018-03-26T18:22:12.472Z,1.20
2018-03-26T18:24:55.172Z,1.33
2018-03-26T18:34:33.694Z,1.23
2018-03-26T18:37:13.252Z,1.20
2018-03-26T18:42:51.458Z,1.40
2018-03-26T18:48:58.801Z,1.27
2018-03-26T18:51:29.316Z,1.33
2018-03-26T18:54:21.390Z,1.00
2018-03-26T18:56:53.269Z,1.10
2018-03-26T18:59:27.075Z,1.20
2018-03-26T19:05:04.324Z,1.50
2018-03-26T19:10:52.059Z,1.20
2018-03-26T19:22:55.001Z,1.20
2018-03-26T19:25:22.503Z,1.27
2018-03-26T19:27:49.980Z,1.23
2018-03-26T19:30:17.703Z,1.10
2018-03-26T19:32:45.191Z,1.40
2018-03-26T19:35:12.770Z,1.17
2018-03-26T19:37:40.207Z,1.17
2018-03-26T19:43:00.915Z,1.20
2018-03-26T19:45:28.518Z,1.63
2018-03-26T19:47:55.936Z,1.27
2018-03-26T19:50:23.405Z,2.00
2018-03-26T19:52:50.821Z,1.73
2018-03-26T19:55:18.322Z,1.90
2018-03-26T19:57:45.826Z,1.90
2018-03-26T20:00:13.334Z,2.10
2018-03-26T20:02:40.836Z,2.17
2018-03-26T20:05:08.382Z,1.97
2018-03-26T20:07:36.554Z,2.10
2018-03-26T20:10:05.311Z,1.80
2018-03-26T20:12:33.828Z,2.10
2018-03-26T20:15:01.302Z,2.20
2018-03-26T20:17:28.855Z,2.00
2018-03-26T20:19:56.660Z,1.80
2018-03-26T20:22:24.111Z,2.20
2018-03-26T20:24:51.683Z,3.40
2018-03-26T20:27:20.104Z,2.77
2018-03-26T20:29:48.371Z,3.70
2018-03-26T20:32:15.952Z,2.17
2018-03-26T20:34:43.442Z,2.70
2018-03-26T20:37:11.080Z,3.80
2018-03-26T20:39:38.539Z,3.67
2018-03-26T20:42:06.086Z,3.83
2018-03-26T20:44:33.623Z,3.90
2018-03-26T20:47:01.062Z,4.63
2018-03-26T20:49:28.510Z,3.93
2018-03-26T20:51:56.054Z,2.60
2018-03-26T20:54:23.523Z,2.67
2018-03-26T20:56:51.011Z,2.33
2018-03-26T20:59:18.471Z,2.20
2018-03-26T21:01:47.684Z,2.07
2018-03-26T21:04:15.145Z,2.87
2018-03-26T21:06:42.609Z,1.87
2018-03-26T21:09:10.726Z,2.23
2018-03-26T21:11:38.199Z,2.43
2018-03-26T21:14:05.687Z,2.40
2018-03-26T21:16:33.457Z,2.60
2018-03-26T21:19:00.992Z,2.57
2018-03-26T21:21:28.531Z,2.37
2018-03-26T21:23:55.991Z,3.27
2018-03-26T21:26:23.544Z,2.70
2018-03-26T21:28:51.003Z,2.43
2018-03-26T21:31:18.503Z,2.50
2018-03-26T21:33:46.066Z,2.37
2018-03-26T21:36:13.515Z,2.23
2018-03-26T21:38:40.998Z,2.60
2018-03-26T21:41:08.521Z,2.43
2018-03-26T21:43:36.079Z,2.30
2018-03-26T21:46:03.592Z,2.50
2018-03-26T21:48:31.100Z,2.97
2018-03-26T21:50:58.636Z,3.13
2018-03-26T21:53:26.094Z,3.70
2018-03-26T21:55:54.357Z,4.60
2018-03-26T21:58:21.839Z,3.57
2018-03-26T22:00:49.855Z,3.23
2018-03-26T22:03:17.399Z,2.70
2018-03-26T22:05:44.904Z,3.07
2018-03-26T22:08:13.064Z,2.67
2018-03-26T22:10:40.541Z,3.13
2018-03-26T22:13:08.026Z,2.40
2018-03-26T22:15:35.668Z,3.10
2018-03-26T22:18:03.266Z,2.40
2018-03-26T22:20:30.799Z,2.40
2018-03-26T22:22:58.931Z,2.80
2018-03-26T22:25:26.427Z,2.30
2018-03-26T22:27:53.895Z,2.63
2018-03-26T22:30:21.310Z,2.50
2018-03-26T22:32:48.933Z,2.20
2018-03-26T22:35:16.365Z,2.50
2018-03-26T22:37:43.781Z,2.30
2018-03-26T22:40:11.230Z,2.60
2018-03-26T22:42:39.098Z,2.90
2018-03-26T22:45:06.698Z,2.87
2018-03-26T22:47:34.443Z,2.47
2018-03-26T22:50:01.896Z,2.50
2018-03-26T22:52:29.286Z,2.37
2018-03-26T22:54:56.782Z,2.30
2018-03-26T22:57:24.328Z,2.50
2018-03-26T22:59:51.923Z,2.60
2018-03-26T23:02:19.382Z,2.70
2018-03-26T23:04:46.857Z,4.13
2018-03-26T23:07:14.299Z,3.17
2018-03-26T23:09:42.602Z,2.40
2018-03-26T23:12:10.112Z,2.97
2018-03-26T23:14:37.631Z,2.40
2018-03-26T23:17:05.190Z,2.50
2018-03-26T23:19:32.657Z,2.70
2018-03-26T23:22:00.135Z,2.50
2018-03-26T23:24:27.588Z,2.53
2018-03-26T23:26:54.999Z,2.60
2018-03-26T23:29:22.433Z,2.57
2018-03-26T23:31:49.867Z,2.50
2018-03-26T23:34:17.251Z,2.50
2018-03-26T23:36:44.691Z,2.30
2018-03-26T23:39:12.129Z,2.33
2018-03-26T23:41:39.770Z,2.50
2018-03-26T23:44:07.349Z,2.57
2018-03-26T23:46:35.066Z,2.60
2018-03-26T23:49:15.392Z,3.00
2018-03-26T23:51:43.094Z,2.33
2018-03-26T23:54:11.655Z,2.75
2018-03-26T23:56:40.703Z,3.03
2018-03-26T23:59:08.094Z,2.70
